sensor_id;sensor_type;location;lat;lon;timestamp;temperature;humidity
16038;DHT22;8123;50.906;6.172;2024-02-26T00:00:29;7.00;99.90
16038;DHT22;8123;50.906;6.172;2024-02-26T00:02:55;6.90;1.00
16038;DHT22;8123;50.906;6.172;2024-02-26T00:05:21;6.80;99.90
16038;DHT22;8123;50.906;6.172;2024-02-26T00:07:47;6.80;1.00
16038;DHT22;8123;50.906;6.172;2024-02-26T00:10:13;6.70;1.00
16038;DHT22;8123;50.906;6.172;2024-02-26T00:12:39;6.70;1.00
16038;DHT22;8123;50.906;6.172;2024-02-26T00:15:08;6.70;99.90
16038;DHT22;8123;50.906;6.172;2024-02-26T00:17:34;6.70;99.90
16038;DHT22;8123;50.906;6.172;2024-02-26T00:20:01;6.90;1.00
16038;DHT22;8123;50.906;6.172;2024-02-26T00:22:30;6.70;1.00
16038;DHT22;8123;50.906;6.172;2024-02-26T00:24:55;6.70;1.00
16038;DHT22;8123;50.906;6.172;2024-02-26T00:27:21;6.70;1.00
16038;DHT22;8123;50.906;6.172;2024-02-26T00:29:47;6.70;39.60
16038;DHT22;8123;50.906;6.172;2024-02-26T00:32:12;6.60;99.90
16038;DHT22;8123;50.906;6.172;2024-02-26T00:34:38;6.70;99.90
16038;DHT22;8123;50.906;6.172;2024-02-26T00:37:04;6.70;1.00
16038;DHT22;8123;50.906;6.172;2024-02-26T00:39:29;6.70;1.00
16038;DHT22;8123;50.906;6.172;2024-02-26T00:41:55;6.70;1.00
16038;DHT22;8123;50.906;6.172;2024-02-26T00:44:21;6.70;99.90
16038;DHT22;8123;50.906;6.172;2024-02-26T00:46:46;6.70;99.90
16038;DHT22;8123;50.906;6.172;2024-02-26T00:49:12;6.80;1.00
16038;DHT22;8123;50.906;6.172;2024-02-26T00:51:37;6.70;1.00
16038;DHT22;8123;50.906;6.172;2024-02-26T00:54:03;6.70;1.00
16038;DHT22;8123;50.906;6.172;2024-02-26T00:56:29;6.70;99.90
16038;DHT22;8123;50.906;6.172;2024-02-26T00:58:54;6.70;99.90
16038;DHT22;8123;50.906;6.172;2024-02-26T01:01:20;6.90;90.50
16038;DHT22;8123;50.906;6.172;2024-02-26T01:03:45;6.70;99.90
16038;DHT22;8123;50.906;6.172;2024-02-26T01:06:11;6.80;99.90
16038;DHT22;8123;50.906;6.172;2024-02-26T01:08:37;6.70;99.90
16038;DHT22;8123;50.906;6.172;2024-02-26T01:11:03;6.70;99.90
16038;DHT22;8123;50.906;6.172;2024-02-26T01:13:28;6.80;1.00
16038;DHT22;8123;50.906;6.172;2024-02-26T01:15:54;6.70;1.00
16038;DHT22;8123;50.906;6.172;2024-02-26T01:18:20;6.70;1.00
16038;DHT22;8123;50.906;6.172;2024-02-26T01:20:46;6.60;1.00
16038;DHT22;8123;50.906;6.172;2024-02-26T01:23:12;6.60;1.00
16038;DHT22;8123;50.906;6.172;2024-02-26T01:25:38;6.60;1.00
16038;DHT22;8123;50.906;6.172;2024-02-26T01:28:04;6.80;1.00
16038;DHT22;8123;50.906;6.172;2024-02-26T01:30:31;6.60;1.00
16038;DHT22;8123;50.906;6.172;2024-02-26T01:32:56;6.60;1.00
16038;DHT22;8123;50.906;6.172;2024-02-26T01:35:22;6.80;1.00
16038;DHT22;8123;50.906;6.172;2024-02-26T01:37:48;6.70;1.00
16038;DHT22;8123;50.906;6.172;2024-02-26T01:40:13;6.80;1.00
16038;DHT22;8123;50.906;6.172;2024-02-26T01:42:43;6.70;1.00
16038;DHT22;8123;50.906;6.172;2024-02-26T01:45:18;6.80;22.60
16038;DHT22;8123;50.906;6.172;2024-02-26T01:47:51;6.70;35.80
16038;DHT22;8123;50.906;6.172;2024-02-26T01:50:18;6.60;34.60
16038;DHT22;8123;50.906;6.172;2024-02-26T01:52:47;6.60;54.30
16038;DHT22;8123;50.906;6.172;2024-02-26T01:55:14;6.60;73.00
16038;DHT22;8123;50.906;6.172;2024-02-26T01:57:44;6.70;72.60
16038;DHT22;8123;50.906;6.172;2024-02-26T02:00:11;6.60;88.80
16038;DHT22;8123;50.906;6.172;2024-02-26T02:02:37;6.60;99.90
16038;DHT22;8123;50.906;6.172;2024-02-26T02:05:05;6.90;99.90
16038;DHT22;8123;50.906;6.172;2024-02-26T02:07:31;6.60;99.90
16038;DHT22;8123;50.906;6.172;2024-02-26T02:09:57;6.60;99.90
16038;DHT22;8123;50.906;6.172;2024-02-26T02:12:23;6.90;99.90
16038;DHT22;8123;50.906;6.172;2024-02-26T02:14:49;6.60;99.90
16038;DHT22;8123;50.906;6.172;2024-02-26T02:17:14;6.70;99.90
16038;DHT22;8123;50.906;6.172;2024-02-26T02:19:40;6.70;99.90
16038;DHT22;8123;50.906;6.172;2024-02-26T02:22:05;6.70;99.90
16038;DHT22;8123;50.906;6.172;2024-02-26T02:24:31;6.60;99.90
16038;DHT22;8123;50.906;6.172;2024-02-26T02:26:57;6.60;99.90
16038;DHT22;8123;50.906;6.172;2024-02-26T02:29:22;6.60;99.90
16038;DHT22;8123;50.906;6.172;2024-02-26T02:31:48;6.60;99.90
16038;DHT22;8123;50.906;6.172;2024-02-26T02:34:14;6.70;99.90
16038;DHT22;8123;50.906;6.172;2024-02-26T02:36:52;6.60;99.90
16038;DHT22;8123;50.906;6.172;2024-02-26T02:39:18;6.60;99.90
16038;DHT22;8123;50.906;6.172;2024-02-26T02:41:43;6.70;99.90
16038;DHT22;8123;50.906;6.172;2024-02-26T02:44:09;6.80;99.90
16038;DHT22;8123;50.906;6.172;2024-02-26T02:46:35;6.80;99.90
16038;DHT22;8123;50.906;6.172;2024-02-26T02:49:01;6.60;99.90
16038;DHT22;8123;50.906;6.172;2024-02-26T02:51:27;6.60;99.90
16038;DHT22;8123;50.906;6.172;2024-02-26T02:53:52;6.80;99.90
16038;DHT22;8123;50.906;6.172;2024-02-26T02:56:18;6.60;99.90
16038;DHT22;8123;50.906;6.172;2024-02-26T02:58:44;6.80;99.90
16038;DHT22;8123;50.906;6.172;2024-02-26T03:01:10;6.80;99.90
16038;DHT22;8123;50.906;6.172;2024-02-26T03:03:35;6.50;99.90
16038;DHT22;8123;50.906;6.172;2024-02-26T03:06:03;6.60;99.90
16038;DHT22;8123;50.906;6.172;2024-02-26T03:08:28;6.50;99.90
16038;DHT22;8123;50.906;6.172;2024-02-26T03:10:54;6.50;99.90
16038;DHT22;8123;50.906;6.172;2024-02-26T03:13:20;6.50;99.90
16038;DHT22;8123;50.906;6.172;2024-02-26T03:15:45;6.40;99.90
16038;DHT22;8123;50.906;6.172;2024-02-26T03:18:11;6.70;99.90
16038;DHT22;8123;50.906;6.172;2024-02-26T03:20:36;6.40;99.90
16038;DHT22;8123;50.906;6.172;2024-02-26T03:23:03;6.40;99.90
16038;DHT22;8123;50.906;6.172;2024-02-26T03:25:28;6.40;99.90
16038;DHT22;8123;50.906;6.172;2024-02-26T03:27:54;6.40;99.90
16038;DHT22;8123;50.906;6.172;2024-02-26T03:30:19;6.40;99.90
16038;DHT22;8123;50.906;6.172;2024-02-26T03:32:45;6.40;99.90
16038;DHT22;8123;50.906;6.172;2024-02-26T03:35:12;6.40;99.90
16038;DHT22;8123;50.906;6.172;2024-02-26T03:37:38;6.30;99.90
16038;DHT22;8123;50.906;6.172;2024-02-26T03:40:04;6.40;99.90
16038;DHT22;8123;50.906;6.172;2024-02-26T03:42:30;6.30;99.90
16038;DHT22;8123;50.906;6.172;2024-02-26T03:44:55;6.30;99.90
16038;DHT22;8123;50.906;6.172;2024-02-26T03:47:21;6.50;99.90
16038;DHT22;8123;50.906;6.172;2024-02-26T03:49:46;6.30;99.90
16038;DHT22;8123;50.906;6.172;2024-02-26T03:52:13;6.40;99.90
16038;DHT22;8123;50.906;6.172;2024-02-26T03:54:38;6.40;99.90
16038;DHT22;8123;50.906;6.172;2024-02-26T03:57:04;6.40;99.90
16038;DHT22;8123;50.906;6.172;2024-02-26T03:59:30;6.40;99.90
16038;DHT22;8123;50.906;6.172;2024-02-26T04:01:55;6.50;99.90
16038;DHT22;8123;50.906;6.172;2024-02-26T04:04:21;6.40;99.90
16038;DHT22;8123;50.906;6.172;2024-02-26T04:06:46;6.50;99.90
16038;DHT22;8123;50.906;6.172;2024-02-26T04:09:15;6.40;99.90
16038;DHT22;8123;50.906;6.172;2024-02-26T04:11:41;6.50;99.90
16038;DHT22;8123;50.906;6.172;2024-02-26T04:14:08;6.60;99.90
16038;DHT22;8123;50.906;6.172;2024-02-26T04:16:35;6.70;99.90
16038;DHT22;8123;50.906;6.172;2024-02-26T04:19:01;6.70;99.90
16038;DHT22;8123;50.906;6.172;2024-02-26T04:21:27;6.70;99.90
16038;DHT22;8123;50.906;6.172;2024-02-26T04:23:52;6.40;99.90
16038;DHT22;8123;50.906;6.172;2024-02-26T04:26:21;6.40;99.90
16038;DHT22;8123;50.906;6.172;2024-02-26T04:28:47;6.40;99.90
16038;DHT22;8123;50.906;6.172;2024-02-26T04:31:12;6.50;99.90
16038;DHT22;8123;50.906;6.172;2024-02-26T04:33:38;6.40;99.90
16038;DHT22;8123;50.906;6.172;2024-02-26T04:36:04;6.60;99.90
16038;DHT22;8123;50.906;6.172;2024-02-26T04:38:30;6.40;99.90
16038;DHT22;8123;50.906;6.172;2024-02-26T04:40:55;6.40;99.90
16038;DHT22;8123;50.906;6.172;2024-02-26T04:43:21;6.40;99.90
16038;DHT22;8123;50.906;6.172;2024-02-26T04:45:46;6.30;99.90
16038;DHT22;8123;50.906;6.172;2024-02-26T04:48:13;6.40;99.90
16038;DHT22;8123;50.906;6.172;2024-02-26T04:50:39;6.30;99.90
16038;DHT22;8123;50.906;6.172;2024-02-26T04:53:04;6.30;99.90
16038;DHT22;8123;50.906;6.172;2024-02-26T04:55:30;6.30;99.90
16038;DHT22;8123;50.906;6.172;2024-02-26T04:57:55;6.40;99.90
16038;DHT22;8123;50.906;6.172;2024-02-26T05:00:21;6.30;99.90
16038;DHT22;8123;50.906;6.172;2024-02-26T05:02:47;6.30;99.90
16038;DHT22;8123;50.906;6.172;2024-02-26T05:05:13;6.40;99.90
16038;DHT22;8123;50.906;6.172;2024-02-26T05:07:40;6.30;99.90
16038;DHT22;8123;50.906;6.172;2024-02-26T05:10:06;6.30;99.90
16038;DHT22;8123;50.906;6.172;2024-02-26T05:12:32;6.30;99.90
16038;DHT22;8123;50.906;6.172;2024-02-26T05:15:00;6.40;99.90
16038;DHT22;8123;50.906;6.172;2024-02-26T05:17:26;6.60;99.90
16038;DHT22;8123;50.906;6.172;2024-02-26T05:19:51;6.30;99.90
16038;DHT22;8123;50.906;6.172;2024-02-26T05:22:17;6.50;99.90
16038;DHT22;8123;50.906;6.172;2024-02-26T05:24:43;6.50;99.90
16038;DHT22;8123;50.906;6.172;2024-02-26T05:27:09;6.50;99.90
16038;DHT22;8123;50.906;6.172;2024-02-26T05:29:35;6.50;99.90
16038;DHT22;8123;50.906;6.172;2024-02-26T05:32:00;6.30;99.90
16038;DHT22;8123;50.906;6.172;2024-02-26T05:34:26;6.30;99.90
16038;DHT22;8123;50.906;6.172;2024-02-26T05:36:52;6.50;99.90
16038;DHT22;8123;50.906;6.172;2024-02-26T05:39:17;6.30;99.90
16038;DHT22;8123;50.906;6.172;2024-02-26T05:41:44;6.30;99.90
16038;DHT22;8123;50.906;6.172;2024-02-26T05:44:11;6.30;99.90
16038;DHT22;8123;50.906;6.172;2024-02-26T05:46:37;6.30;99.90
16038;DHT22;8123;50.906;6.172;2024-02-26T05:49:02;6.30;99.90
16038;DHT22;8123;50.906;6.172;2024-02-26T05:51:28;6.30;99.90
16038;DHT22;8123;50.906;6.172;2024-02-26T05:53:54;6.30;99.90
16038;DHT22;8123;50.906;6.172;2024-02-26T05:56:23;6.80;99.90
16038;DHT22;8123;50.906;6.172;2024-02-26T05:58:49;6.20;99.90
16038;DHT22;8123;50.906;6.172;2024-02-26T06:01:16;6.50;99.90
16038;DHT22;8123;50.906;6.172;2024-02-26T06:03:42;6.20;99.90
16038;DHT22;8123;50.906;6.172;2024-02-26T06:06:08;6.30;99.90
16038;DHT22;8123;50.906;6.172;2024-02-26T06:08:33;6.60;99.90
16038;DHT22;8123;50.906;6.172;2024-02-26T06:10:59;6.50;99.90
16038;DHT22;8123;50.906;6.172;2024-02-26T06:13:24;6.30;99.90
16038;DHT22;8123;50.906;6.172;2024-02-26T06:15:50;6.20;99.90
16038;DHT22;8123;50.906;6.172;2024-02-26T06:18:16;6.30;99.90
16038;DHT22;8123;50.906;6.172;2024-02-26T06:20:41;6.20;99.90
16038;DHT22;8123;50.906;6.172;2024-02-26T06:23:07;6.20;99.90
16038;DHT22;8123;50.906;6.172;2024-02-26T06:25:32;6.40;99.90
16038;DHT22;8123;50.906;6.172;2024-02-26T06:27:58;6.20;99.90
16038;DHT22;8123;50.906;6.172;2024-02-26T06:30:24;6.50;99.90
16038;DHT22;8123;50.906;6.172;2024-02-26T06:32:49;6.20;99.90
16038;DHT22;8123;50.906;6.172;2024-02-26T06:35:15;6.30;99.90
16038;DHT22;8123;50.906;6.172;2024-02-26T06:37:41;6.20;99.90
16038;DHT22;8123;50.906;6.172;2024-02-26T06:40:07;6.30;99.90
16038;DHT22;8123;50.906;6.172;2024-02-26T06:42:33;6.20;99.90
16038;DHT22;8123;50.906;6.172;2024-02-26T06:44:58;6.20;99.90
16038;DHT22;8123;50.906;6.172;2024-02-26T06:47:24;6.20;99.90
16038;DHT22;8123;50.906;6.172;2024-02-26T06:49:50;6.20;99.90
16038;DHT22;8123;50.906;6.172;2024-02-26T06:52:16;6.20;99.90
16038;DHT22;8123;50.906;6.172;2024-02-26T06:54:41;6.20;99.90
16038;DHT22;8123;50.906;6.172;2024-02-26T06:57:07;6.20;99.90
16038;DHT22;8123;50.906;6.172;2024-02-26T06:59:32;6.20;99.90
16038;DHT22;8123;50.906;6.172;2024-02-26T07:01:58;6.30;99.90
16038;DHT22;8123;50.906;6.172;2024-02-26T07:04:24;6.20;99.90
16038;DHT22;8123;50.906;6.172;2024-02-26T07:06:49;6.20;99.90
16038;DHT22;8123;50.906;6.172;2024-02-26T07:09:15;6.20;99.90
16038;DHT22;8123;50.906;6.172;2024-02-26T07:11:41;6.40;99.90
16038;DHT22;8123;50.906;6.172;2024-02-26T07:14:10;6.20;99.90
16038;DHT22;8123;50.906;6.172;2024-02-26T07:16:36;6.50;99.90
16038;DHT22;8123;50.906;6.172;2024-02-26T07:19:02;6.50;99.90
16038;DHT22;8123;50.906;6.172;2024-02-26T07:21:28;6.50;99.90
16038;DHT22;8123;50.906;6.172;2024-02-26T07:23:54;6.30;99.90
16038;DHT22;8123;50.906;6.172;2024-02-26T07:26:19;6.30;99.90
16038;DHT22;8123;50.906;6.172;2024-02-26T07:28:45;6.60;99.90
16038;DHT22;8123;50.906;6.172;2024-02-26T07:31:11;6.30;99.90
16038;DHT22;8123;50.906;6.172;2024-02-26T07:33:36;6.30;99.90
16038;DHT22;8123;50.906;6.172;2024-02-26T07:36:02;6.30;99.90
16038;DHT22;8123;50.906;6.172;2024-02-26T07:38:28;6.30;99.90
16038;DHT22;8123;50.906;6.172;2024-02-26T07:40:54;6.40;99.90
16038;DHT22;8123;50.906;6.172;2024-02-26T07:43:19;6.30;99.90
16038;DHT22;8123;50.906;6.172;2024-02-26T07:45:45;6.20;99.90
16038;DHT22;8123;50.906;6.172;2024-02-26T07:48:10;6.20;99.90
16038;DHT22;8123;50.906;6.172;2024-02-26T07:50:36;6.40;99.90
16038;DHT22;8123;50.906;6.172;2024-02-26T07:53:02;6.30;99.90
16038;DHT22;8123;50.906;6.172;2024-02-26T07:55:27;6.20;99.90
16038;DHT22;8123;50.906;6.172;2024-02-26T07:57:53;6.30;99.90
16038;DHT22;8123;50.906;6.172;2024-02-26T08:00:19;6.30;99.90
16038;DHT22;8123;50.906;6.172;2024-02-26T08:02:45;6.20;99.90
16038;DHT22;8123;50.906;6.172;2024-02-26T08:05:10;6.40;99.90
16038;DHT22;8123;50.906;6.172;2024-02-26T08:07:36;6.50;99.90
16038;DHT22;8123;50.906;6.172;2024-02-26T08:10:02;6.30;99.90
16038;DHT22;8123;50.906;6.172;2024-02-26T08:12:27;6.30;99.90
16038;DHT22;8123;50.906;6.172;2024-02-26T08:14:53;6.40;99.90
16038;DHT22;8123;50.906;6.172;2024-02-26T08:17:19;6.50;99.90
16038;DHT22;8123;50.906;6.172;2024-02-26T08:19:44;6.30;99.90
16038;DHT22;8123;50.906;6.172;2024-02-26T08:22:10;6.50;99.90
16038;DHT22;8123;50.906;6.172;2024-02-26T08:24:41;6.30;99.90
16038;DHT22;8123;50.906;6.172;2024-02-26T08:27:07;6.50;99.90
16038;DHT22;8123;50.906;6.172;2024-02-26T08:29:33;6.70;99.90
16038;DHT22;8123;50.906;6.172;2024-02-26T08:31:58;6.40;99.90
16038;DHT22;8123;50.906;6.172;2024-02-26T08:34:25;6.30;99.90
16038;DHT22;8123;50.906;6.172;2024-02-26T08:36:50;6.30;99.90
16038;DHT22;8123;50.906;6.172;2024-02-26T08:39:17;6.40;99.90
16038;DHT22;8123;50.906;6.172;2024-02-26T08:41:43;6.50;99.90
16038;DHT22;8123;50.906;6.172;2024-02-26T08:44:09;6.30;99.90
16038;DHT22;8123;50.906;6.172;2024-02-26T08:46:35;6.40;99.90
16038;DHT22;8123;50.906;6.172;2024-02-26T08:49:00;6.50;99.90
16038;DHT22;8123;50.906;6.172;2024-02-26T08:51:26;6.40;99.90
16038;DHT22;8123;50.906;6.172;2024-02-26T08:53:51;6.40;99.90
16038;DHT22;8123;50.906;6.172;2024-02-26T08:56:19;6.40;99.90
16038;DHT22;8123;50.906;6.172;2024-02-26T08:58:46;6.30;99.90
16038;DHT22;8123;50.906;6.172;2024-02-26T09:01:14;6.50;99.90
16038;DHT22;8123;50.906;6.172;2024-02-26T09:03:40;6.40;99.90
16038;DHT22;8123;50.906;6.172;2024-02-26T09:06:06;6.50;99.90
16038;DHT22;8123;50.906;6.172;2024-02-26T09:08:34;6.30;99.90
16038;DHT22;8123;50.906;6.172;2024-02-26T09:11:01;6.40;99.90
16038;DHT22;8123;50.906;6.172;2024-02-26T09:13:28;6.40;99.90
16038;DHT22;8123;50.906;6.172;2024-02-26T09:15:54;6.40;99.90
16038;DHT22;8123;50.906;6.172;2024-02-26T09:18:20;6.60;99.90
16038;DHT22;8123;50.906;6.172;2024-02-26T09:20:46;6.40;99.90
16038;DHT22;8123;50.906;6.172;2024-02-26T09:23:11;6.50;99.90
16038;DHT22;8123;50.906;6.172;2024-02-26T09:25:37;6.50;99.90
16038;DHT22;8123;50.906;6.172;2024-02-26T09:28:03;6.50;99.90
16038;DHT22;8123;50.906;6.172;2024-02-26T09:30:28;6.50;99.90
16038;DHT22;8123;50.906;6.172;2024-02-26T09:32:54;6.50;99.90
16038;DHT22;8123;50.906;6.172;2024-02-26T09:35:20;6.50;99.90
16038;DHT22;8123;50.906;6.172;2024-02-26T09:37:46;6.50;99.90
16038;DHT22;8123;50.906;6.172;2024-02-26T09:40:14;6.50;99.90
16038;DHT22;8123;50.906;6.172;2024-02-26T09:42:44;6.50;99.90
16038;DHT22;8123;50.906;6.172;2024-02-26T09:45:17;6.50;99.90
16038;DHT22;8123;50.906;6.172;2024-02-26T09:47:44;6.80;99.90
16038;DHT22;8123;50.906;6.172;2024-02-26T09:50:11;6.50;99.90
16038;DHT22;8123;50.906;6.172;2024-02-26T09:52:40;6.50;99.90
16038;DHT22;8123;50.906;6.172;2024-02-26T09:55:08;6.60;99.90
16038;DHT22;8123;50.906;6.172;2024-02-26T09:57:36;6.50;99.90
16038;DHT22;8123;50.906;6.172;2024-02-26T10:00:03;6.70;99.90
16038;DHT22;8123;50.906;6.172;2024-02-26T10:02:33;6.40;99.90
16038;DHT22;8123;50.906;6.172;2024-02-26T10:05:02;6.50;99.90
16038;DHT22;8123;50.906;6.172;2024-02-26T10:07:30;6.50;99.90
16038;DHT22;8123;50.906;6.172;2024-02-26T10:09:57;6.50;99.90
16038;DHT22;8123;50.906;6.172;2024-02-26T10:12:23;6.50;99.90
16038;DHT22;8123;50.906;6.172;2024-02-26T10:14:51;6.50;99.90
16038;DHT22;8123;50.906;6.172;2024-02-26T10:17:17;6.50;99.90
16038;DHT22;8123;50.906;6.172;2024-02-26T10:19:44;6.70;99.90
16038;DHT22;8123;50.906;6.172;2024-02-26T10:22:09;6.90;99.90
16038;DHT22;8123;50.906;6.172;2024-02-26T10:24:35;6.80;99.90
16038;DHT22;8123;50.906;6.172;2024-02-26T10:27:02;6.60;99.90
16038;DHT22;8123;50.906;6.172;2024-02-26T10:29:27;6.60;99.90
16038;DHT22;8123;50.906;6.172;2024-02-26T10:31:53;6.60;99.90
16038;DHT22;8123;50.906;6.172;2024-02-26T10:34:20;6.80;99.90
16038;DHT22;8123;50.906;6.172;2024-02-26T10:36:45;6.70;99.90
16038;DHT22;8123;50.906;6.172;2024-02-26T10:39:14;6.70;99.90
16038;DHT22;8123;50.906;6.172;2024-02-26T10:41:41;6.80;99.90
16038;DHT22;8123;50.906;6.172;2024-02-26T10:44:09;7.10;99.90
16038;DHT22;8123;50.906;6.172;2024-02-26T10:46:37;7.00;99.90
16038;DHT22;8123;50.906;6.172;2024-02-26T10:49:02;7.30;99.90
16038;DHT22;8123;50.906;6.172;2024-02-26T10:51:30;7.00;99.90
16038;DHT22;8123;50.906;6.172;2024-02-26T10:53:58;7.00;99.90
16038;DHT22;8123;50.906;6.172;2024-02-26T10:56:28;7.10;99.90
16038;DHT22;8123;50.906;6.172;2024-02-26T10:58:58;7.10;99.90
16038;DHT22;8123;50.906;6.172;2024-02-26T11:01:24;7.20;99.90
16038;DHT22;8123;50.906;6.172;2024-02-26T11:03:51;7.30;99.90
16038;DHT22;8123;50.906;6.172;2024-02-26T11:06:19;7.40;99.90
16038;DHT22;8123;50.906;6.172;2024-02-26T11:08:48;7.20;99.90
16038;DHT22;8123;50.906;6.172;2024-02-26T11:11:15;7.20;99.90
16038;DHT22;8123;50.906;6.172;2024-02-26T11:13:43;7.20;99.90
16038;DHT22;8123;50.906;6.172;2024-02-26T11:16:11;7.30;99.90
16038;DHT22;8123;50.906;6.172;2024-02-26T11:18:39;7.20;99.90
16038;DHT22;8123;50.906;6.172;2024-02-26T11:21:07;7.30;99.90
16038;DHT22;8123;50.906;6.172;2024-02-26T11:23:34;7.20;99.90
16038;DHT22;8123;50.906;6.172;2024-02-26T11:26:03;7.20;99.90
16038;DHT22;8123;50.906;6.172;2024-02-26T11:28:32;7.20;99.90
16038;DHT22;8123;50.906;6.172;2024-02-26T11:30:59;7.20;99.90
16038;DHT22;8123;50.906;6.172;2024-02-26T11:33:26;7.20;99.90
16038;DHT22;8123;50.906;6.172;2024-02-26T11:35:53;7.50;99.90
16038;DHT22;8123;50.906;6.172;2024-02-26T11:38:26;7.10;99.90
16038;DHT22;8123;50.906;6.172;2024-02-26T11:40:53;7.20;99.90
16038;DHT22;8123;50.906;6.172;2024-02-26T11:44:08;7.40;99.90
16038;DHT22;8123;50.906;6.172;2024-02-26T11:46:25;7.20;99.90
16038;DHT22;8123;50.906;6.172;2024-02-26T11:48:50;7.10;99.90
16038;DHT22;8123;50.906;6.172;2024-02-26T11:51:16;7.10;99.90
16038;DHT22;8123;50.906;6.172;2024-02-26T11:53:46;7.20;99.90
16038;DHT22;8123;50.906;6.172;2024-02-26T11:58:42;7.10;99.90
16038;DHT22;8123;50.906;6.172;2024-02-26T12:01:38;7.10;99.90
16038;DHT22;8123;50.906;6.172;2024-02-26T12:04:05;7.00;99.90
16038;DHT22;8123;50.906;6.172;2024-02-26T12:06:31;7.10;99.90
16038;DHT22;8123;50.906;6.172;2024-02-26T12:09:05;7.10;99.90
16038;DHT22;8123;50.906;6.172;2024-02-26T12:11:31;7.10;99.90
16038;DHT22;8123;50.906;6.172;2024-02-26T12:13:56;7.10;99.90
16038;DHT22;8123;50.906;6.172;2024-02-26T12:16:35;7.10;99.90
16038;DHT22;8123;50.906;6.172;2024-02-26T12:19:04;7.20;99.90
16038;DHT22;8123;50.906;6.172;2024-02-26T12:21:33;7.10;99.90
16038;DHT22;8123;50.906;6.172;2024-02-26T12:24:10;7.00;99.90
16038;DHT22;8123;50.906;6.172;2024-02-26T12:26:36;7.00;99.90
16038;DHT22;8123;50.906;6.172;2024-02-26T12:29:02;7.20;99.90
16038;DHT22;8123;50.906;6.172;2024-02-26T12:31:28;7.00;99.90
16038;DHT22;8123;50.906;6.172;2024-02-26T12:33:54;7.20;99.90
16038;DHT22;8123;50.906;6.172;2024-02-26T12:36:21;7.10;99.90
16038;DHT22;8123;50.906;6.172;2024-02-26T12:38:50;7.30;99.90
16038;DHT22;8123;50.906;6.172;2024-02-26T12:41:16;7.30;99.90
16038;DHT22;8123;50.906;6.172;2024-02-26T12:43:42;7.00;99.90
16038;DHT22;8123;50.906;6.172;2024-02-26T12:46:08;7.00;99.90
16038;DHT22;8123;50.906;6.172;2024-02-26T12:48:33;7.20;99.90
16038;DHT22;8123;50.906;6.172;2024-02-26T12:50:59;7.10;99.90
16038;DHT22;8123;50.906;6.172;2024-02-26T12:53:26;6.90;99.90
16038;DHT22;8123;50.906;6.172;2024-02-26T12:55:54;7.00;99.90
16038;DHT22;8123;50.906;6.172;2024-02-26T12:58:21;7.00;99.90
16038;DHT22;8123;50.906;6.172;2024-02-26T13:00:51;7.00;99.90
16038;DHT22;8123;50.906;6.172;2024-02-26T13:03:17;6.90;99.90
16038;DHT22;8123;50.906;6.172;2024-02-26T13:05:43;6.90;99.90
16038;DHT22;8123;50.906;6.172;2024-02-26T13:08:09;7.00;99.90
16038;DHT22;8123;50.906;6.172;2024-02-26T13:10:34;7.00;99.90
16038;DHT22;8123;50.906;6.172;2024-02-26T13:13:02;7.20;99.90
16038;DHT22;8123;50.906;6.172;2024-02-26T13:15:27;7.20;99.90
16038;DHT22;8123;50.906;6.172;2024-02-26T13:17:53;7.20;99.90
16038;DHT22;8123;50.906;6.172;2024-02-26T13:20:28;6.90;99.90
16038;DHT22;8123;50.906;6.172;2024-02-26T13:23:07;7.00;99.90
16038;DHT22;8123;50.906;6.172;2024-02-26T13:25:34;7.00;99.90
16038;DHT22;8123;50.906;6.172;2024-02-26T13:28:13;7.00;99.90
16038;DHT22;8123;50.906;6.172;2024-02-26T13:30:41;7.00;99.90
16038;DHT22;8123;50.906;6.172;2024-02-26T13:33:08;7.00;99.90
16038;DHT22;8123;50.906;6.172;2024-02-26T13:35:34;6.90;99.90
16038;DHT22;8123;50.906;6.172;2024-02-26T13:38:00;7.00;99.90
16038;DHT22;8123;50.906;6.172;2024-02-26T13:40:26;7.00;99.90
16038;DHT22;8123;50.906;6.172;2024-02-26T13:42:51;7.30;99.90
16038;DHT22;8123;50.906;6.172;2024-02-26T13:45:18;7.10;99.90
16038;DHT22;8123;50.906;6.172;2024-02-26T13:47:44;7.10;99.90
16038;DHT22;8123;50.906;6.172;2024-02-26T13:50:10;6.90;99.90
16038;DHT22;8123;50.906;6.172;2024-02-26T13:52:35;7.00;99.90
16038;DHT22;8123;50.906;6.172;2024-02-26T13:55:01;6.90;99.90
16038;DHT22;8123;50.906;6.172;2024-02-26T13:57:28;6.90;99.90
16038;DHT22;8123;50.906;6.172;2024-02-26T13:59:54;6.90;99.90
16038;DHT22;8123;50.906;6.172;2024-02-26T14:02:19;7.60;99.90
16038;DHT22;8123;50.906;6.172;2024-02-26T14:04:46;6.80;99.90
16038;DHT22;8123;50.906;6.172;2024-02-26T14:07:12;6.80;99.90
16038;DHT22;8123;50.906;6.172;2024-02-26T14:09:38;7.20;99.90
16038;DHT22;8123;50.906;6.172;2024-02-26T14:12:04;6.80;99.90
16038;DHT22;8123;50.906;6.172;2024-02-26T14:14:30;6.90;99.90
16038;DHT22;8123;50.906;6.172;2024-02-26T14:16:58;7.10;99.90
16038;DHT22;8123;50.906;6.172;2024-02-26T14:19:24;6.90;99.90
16038;DHT22;8123;50.906;6.172;2024-02-26T14:21:50;6.90;99.90
16038;DHT22;8123;50.906;6.172;2024-02-26T14:24:15;6.90;99.90
16038;DHT22;8123;50.906;6.172;2024-02-26T14:26:41;6.90;99.90
16038;DHT22;8123;50.906;6.172;2024-02-26T14:29:07;6.80;99.90
16038;DHT22;8123;50.906;6.172;2024-02-26T14:31:33;7.00;99.90
16038;DHT22;8123;50.906;6.172;2024-02-26T14:33:58;6.80;99.90
16038;DHT22;8123;50.906;6.172;2024-02-26T14:36:24;6.90;99.90
16038;DHT22;8123;50.906;6.172;2024-02-26T14:38:51;6.90;99.90
16038;DHT22;8123;50.906;6.172;2024-02-26T14:41:16;6.90;99.90
16038;DHT22;8123;50.906;6.172;2024-02-26T14:43:42;6.80;99.90
16038;DHT22;8123;50.906;6.172;2024-02-26T14:46:08;6.80;99.90
16038;DHT22;8123;50.906;6.172;2024-02-26T14:48:34;6.90;99.90
16038;DHT22;8123;50.906;6.172;2024-02-26T14:51:00;6.80;99.90
16038;DHT22;8123;50.906;6.172;2024-02-26T14:53:26;6.80;99.90
16038;DHT22;8123;50.906;6.172;2024-02-26T14:55:52;6.80;99.90
16038;DHT22;8123;50.906;6.172;2024-02-26T14:58:17;6.80;99.90
16038;DHT22;8123;50.906;6.172;2024-02-26T15:00:43;6.70;99.90
16038;DHT22;8123;50.906;6.172;2024-02-26T15:03:09;6.70;99.90
16038;DHT22;8123;50.906;6.172;2024-02-26T15:05:35;6.90;99.90
16038;DHT22;8123;50.906;6.172;2024-02-26T15:08:00;7.00;99.90
16038;DHT22;8123;50.906;6.172;2024-02-26T15:10:27;6.70;99.90
16038;DHT22;8123;50.906;6.172;2024-02-26T15:12:54;6.70;99.90
16038;DHT22;8123;50.906;6.172;2024-02-26T15:15:21;7.00;99.90
16038;DHT22;8123;50.906;6.172;2024-02-26T15:17:47;6.70;99.90
16038;DHT22;8123;50.906;6.172;2024-02-26T15:20:14;6.70;99.90
16038;DHT22;8123;50.906;6.172;2024-02-26T15:22:40;6.80;99.90
16038;DHT22;8123;50.906;6.172;2024-02-26T15:25:07;6.70;99.90
16038;DHT22;8123;50.906;6.172;2024-02-26T15:27:32;6.70;99.90
16038;DHT22;8123;50.906;6.172;2024-02-26T15:29:58;6.70;99.90
16038;DHT22;8123;50.906;6.172;2024-02-26T15:32:25;6.90;99.90
16038;DHT22;8123;50.906;6.172;2024-02-26T15:34:55;6.70;99.90
16038;DHT22;8123;50.906;6.172;2024-02-26T15:37:20;6.70;99.90
16038;DHT22;8123;50.906;6.172;2024-02-26T15:39:46;6.80;99.90
16038;DHT22;8123;50.906;6.172;2024-02-26T15:42:12;6.70;99.90
16038;DHT22;8123;50.906;6.172;2024-02-26T15:44:38;7.00;99.90
16038;DHT22;8123;50.906;6.172;2024-02-26T15:47:05;6.70;99.90
16038;DHT22;8123;50.906;6.172;2024-02-26T15:49:33;6.70;99.90
16038;DHT22;8123;50.906;6.172;2024-02-26T15:52:00;6.70;99.90
16038;DHT22;8123;50.906;6.172;2024-02-26T15:54:25;6.60;99.90
16038;DHT22;8123;50.906;6.172;2024-02-26T15:56:51;6.60;99.90
16038;DHT22;8123;50.906;6.172;2024-02-26T15:59:17;6.60;99.90